To NAV CANADA Home Page Login to a new session Search on AWWS site Feedback and Comments Disclaimer Vers la page française équivalente Tips FAQ What's new on the site To the Forecasts and Observations / NOTAM section To "File a Flight Plan" website Publications and other links Update of the User's profile FIC Telephone Numbers My Weather Data Folder Route Weather Data Regional Weather Data Local Weather Data To the Forecasts and Observations / NOTAM section
Request Generated 03/06/2015 at 17:28:28 UTC . Weather information available at that time is displayed.

METAR/TAF

MOOSE JAW/AIR VICE MARSHAL C.M. MCEWEN/SK    

METAR CYMJ 061700Z 25018KT 15SM SCT058 BKN140 BKN240 02/M03 A2989 RMK SC3AC2CI1 SLP155=
SPECI CYMJ 061625Z 25014G20KT 15SM BKN058 00/M04 A2992 RMK SC7 SLP164=
METAR CYMJ 061600Z 25016KT 15SM SCT065 BKN074 00/M04 A2992 RMK AC3AC4 VIRGA ACC EMBD SLP162=
METAR CYMJ 061500Z 25016KT 15SM FEW068 OVC080 M01/M05 A2992 RMK AC2AC6 VIRGA SLP163=

TAF AMD CYMJ 061638Z 0616/0624 28020G30KT P6SM BKN060 TEMPO 0616/0620
P6SM -RASN
FM062300 30020G30KT P6SM BKN020
RMK NXT FCST BY 061800Z=
Your time UTC time
Weather data provided by Environment Canada and NAV CANADA